createdAt,value
2023-04-04T00:00:40.303Z,79.60
2023-04-04T00:03:08.517Z,79.30
2023-04-04T00:05:37.867Z,79.50
2023-04-04T00:08:06.564Z,79.30
2023-04-04T00:10:34.471Z,79.90
2023-04-04T00:13:03.161Z,79.90
2023-04-04T00:15:31.507Z,80.50
2023-04-04T00:17:59.490Z,80.10
2023-04-04T00:20:27.617Z,80.20
2023-04-04T00:22:57.735Z,80.80
2023-04-04T00:25:26.055Z,80.90
2023-04-04T00:27:54.015Z,81.10
2023-04-04T00:30:22.224Z,81.20
2023-04-04T00:32:50.173Z,81.80
2023-04-04T00:35:18.304Z,81.90
2023-04-04T00:37:46.433Z,81.70
2023-04-04T00:40:16.236Z,82.00
2023-04-04T00:42:44.203Z,82.10
2023-04-04T00:45:12.644Z,82.70
2023-04-04T00:47:43.263Z,82.80
2023-04-04T00:50:12.081Z,82.80
2023-04-04T00:52:40.105Z,83.30
2023-04-04T00:55:09.137Z,83.50
2023-04-04T00:57:38.798Z,83.60
2023-04-04T01:00:08.024Z,83.70
2023-04-04T01:02:36.883Z,84.20
2023-04-04T01:05:05.319Z,84.50
2023-04-04T01:07:36.711Z,84.90
2023-04-04T01:10:05.698Z,85.20
2023-04-04T01:12:35.940Z,85.30
2023-04-04T01:15:06.476Z,85.40
2023-04-04T01:17:34.942Z,85.90
2023-04-04T01:20:08.312Z,86.10
2023-04-04T01:22:48.126Z,86.20
2023-04-04T01:25:19.044Z,86.60
2023-04-04T01:27:56.598Z,87.30
2023-04-04T01:30:26.495Z,87.50
2023-04-04T01:33:00.457Z,87.40
2023-04-04T01:35:37.081Z,87.50
2023-04-04T01:38:15.512Z,87.70
2023-04-04T01:40:49.061Z,88.00
2023-04-04T01:43:18.965Z,88.40
2023-04-04T01:45:47.355Z,88.60
2023-04-04T01:48:16.706Z,89.10
2023-04-04T01:50:48.091Z,88.60
2023-04-04T01:53:16.620Z,88.70
2023-04-04T01:55:45.012Z,88.20
2023-04-04T01:58:13.344Z,88.60
2023-04-04T02:00:42.929Z,88.70
2023-04-04T02:03:11.120Z,88.80
2023-04-04T02:05:39.052Z,89.30
2023-04-04T02:08:07.552Z,90.00
2023-04-04T02:10:43.920Z,90.30
2023-04-04T02:13:12.192Z,90.50
2023-04-04T02:15:42.713Z,90.60
2023-04-04T02:18:10.997Z,91.00
2023-04-04T02:20:39.289Z,91.00
2023-04-04T02:23:07.494Z,91.20
2023-04-04T02:25:35.470Z,91.00
2023-04-04T02:28:03.475Z,91.00
2023-04-04T02:30:31.683Z,91.00
2023-04-04T02:33:01.611Z,91.10
2023-04-04T02:35:30.145Z,91.10
2023-04-04T02:37:58.083Z,91.10
2023-04-04T02:40:35.865Z,91.10
2023-04-04T02:43:03.857Z,91.00
2023-04-04T02:45:31.996Z,90.90
2023-04-04T02:48:21.854Z,90.80
2023-04-04T02:50:52.672Z,91.00
2023-04-04T02:53:20.734Z,91.10
2023-04-04T02:55:51.052Z,90.90
2023-04-04T02:58:19.082Z,90.80
2023-04-04T03:00:48.134Z,91.00
2023-04-04T03:03:16.805Z,91.00
2023-04-04T03:05:49.408Z,91.20
2023-04-04T03:08:17.906Z,91.20
2023-04-04T03:10:46.537Z,91.20
2023-04-04T03:13:14.694Z,91.20
2023-04-04T03:15:43.700Z,91.50
2023-04-04T03:18:17.552Z,91.70
2023-04-04T03:20:46.132Z,91.80
2023-04-04T03:23:15.536Z,91.80
2023-04-04T03:25:43.480Z,92.00
2023-04-04T03:28:12.501Z,92.00
2023-04-04T03:30:41.724Z,92.10
2023-04-04T03:33:09.844Z,92.10
2023-04-04T03:35:39.687Z,92.00
2023-04-04T03:38:08.186Z,92.00
2023-04-04T03:40:37.659Z,92.10
2023-04-04T03:43:12.209Z,92.10
2023-04-04T03:45:41.139Z,92.50
2023-04-04T03:48:11.249Z,92.80
2023-04-04T03:50:40.833Z,93.00
2023-04-04T03:53:09.122Z,93.20
2023-04-04T03:55:42.228Z,93.40
2023-04-04T03:58:10.420Z,93.60
2023-04-04T04:00:38.699Z,93.80
2023-04-04T04:03:06.843Z,94.00
2023-04-04T04:05:35.077Z,94.10
2023-04-04T04:08:03.106Z,94.20
2023-04-04T04:10:31.623Z,94.40
2023-04-04T04:13:01.470Z,94.70
2023-04-04T04:15:30.619Z,94.60
2023-04-04T04:18:00.985Z,94.70
2023-04-04T04:20:29.507Z,95.00
2023-04-04T04:22:58.002Z,95.00
2023-04-04T04:25:25.998Z,95.10
2023-04-04T04:28:18.385Z,95.10
2023-04-04T04:30:47.191Z,95.20
2023-04-04T04:33:18.206Z,95.40
2023-04-04T04:35:55.521Z,95.40
2023-04-04T04:38:24.963Z,95.50
2023-04-04T04:40:53.042Z,95.60
2023-04-04T04:43:28.746Z,95.60
2023-04-04T04:45:57.116Z,95.70
2023-04-04T04:48:25.096Z,95.70
2023-04-04T04:50:57.045Z,95.80
2023-04-04T04:53:37.932Z,95.80
2023-04-04T04:56:06.698Z,95.90
2023-04-04T04:58:38.263Z,96.20
2023-04-04T05:01:09.424Z,96.10
2023-04-04T05:03:40.581Z,96.10
2023-04-04T05:06:12.998Z,96.60
2023-04-04T05:08:41.588Z,96.60
2023-04-04T05:11:39.122Z,96.40
2023-04-04T05:14:11.155Z,96.40
2023-04-04T05:16:49.085Z,96.60
2023-04-04T05:19:18.143Z,96.40
2023-04-04T05:21:50.753Z,96.60
2023-04-04T05:24:29.565Z,96.60
2023-04-04T05:26:59.036Z,96.60
2023-04-04T05:29:29.157Z,96.70
2023-04-04T05:31:57.271Z,96.60
2023-04-04T05:34:25.369Z,96.70
2023-04-04T05:36:54.038Z,96.80
2023-04-04T05:39:22.241Z,96.90
2023-04-04T05:42:04.353Z,96.90
2023-04-04T05:44:38.348Z,97.00
2023-04-04T05:47:07.814Z,97.30
2023-04-04T05:49:36.838Z,97.40
2023-04-04T05:52:04.943Z,97.70
2023-04-04T05:54:33.064Z,98.00
2023-04-04T05:57:05.124Z,97.90
2023-04-04T05:59:51.970Z,97.90
2023-04-04T06:02:20.274Z,98.00
2023-04-04T06:04:53.656Z,98.20
2023-04-04T06:07:30.955Z,96.90
2023-04-04T06:09:58.994Z,96.40
2023-04-04T06:12:27.164Z,96.80
2023-04-04T06:14:57.350Z,96.90
2023-04-04T06:17:25.409Z,96.90
2023-04-04T06:19:55.257Z,96.60
2023-04-04T06:22:24.123Z,96.40
2023-04-04T06:24:54.905Z,96.30
2023-04-04T06:27:24.189Z,96.50
2023-04-04T06:29:52.575Z,96.60
2023-04-04T06:32:23.533Z,96.50
2023-04-04T06:34:51.563Z,96.10
2023-04-04T06:37:29.021Z,95.80
2023-04-04T06:40:05.690Z,95.10
2023-04-04T06:42:34.018Z,94.70
2023-04-04T06:45:05.376Z,94.70
2023-04-04T06:47:34.877Z,95.00
2023-04-04T06:50:03.364Z,95.30
2023-04-04T06:52:31.325Z,95.30
2023-04-04T06:54:59.453Z,95.20
2023-04-04T06:57:27.359Z,94.30
2023-04-04T06:59:55.444Z,94.10
2023-04-04T07:02:23.401Z,94.00
2023-04-04T07:04:52.777Z,93.50
2023-04-04T07:07:20.750Z,93.40
2023-04-04T07:09:48.646Z,93.50
2023-04-04T07:12:16.605Z,93.90
2023-04-04T07:14:44.489Z,93.30
2023-04-04T07:17:23.601Z,93.00
2023-04-04T07:19:54.314Z,92.90
2023-04-04T07:22:22.225Z,92.20
2023-04-04T07:24:50.382Z,92.20
2023-04-04T07:27:18.339Z,91.50
2023-04-04T07:29:46.283Z,91.10
2023-04-04T07:32:14.253Z,91.00
2023-04-04T07:34:42.850Z,90.60
2023-04-04T07:37:12.340Z,90.50
2023-04-04T07:39:40.364Z,91.20
2023-04-04T07:42:08.274Z,90.10
2023-04-04T07:44:36.378Z,89.40
2023-04-04T07:47:10.073Z,86.90
2023-04-04T07:49:38.642Z,84.50
2023-04-04T07:52:06.658Z,83.80
2023-04-04T07:54:36.237Z,85.00
2023-04-04T07:57:06.032Z,78.50
2023-04-04T07:59:34.247Z,78.10
2023-04-04T08:02:02.335Z,74.00
2023-04-04T08:04:30.492Z,74.20
2023-04-04T08:06:58.586Z,72.00
2023-04-04T08:09:31.269Z,67.70
2023-04-04T08:12:01.062Z,66.50
2023-04-04T08:14:29.144Z,65.00
2023-04-04T08:16:57.052Z,62.30
2023-04-04T08:19:25.108Z,62.80
2023-04-04T08:21:53.068Z,63.00
2023-04-04T08:24:23.104Z,64.50
2023-04-04T08:26:58.236Z,66.90
2023-04-04T08:29:34.621Z,67.30
2023-04-04T08:32:02.707Z,67.20
2023-04-04T08:34:30.837Z,68.00
2023-04-04T08:37:00.128Z,66.60
2023-04-04T08:39:28.230Z,66.30
2023-04-04T08:42:02.661Z,65.50
2023-04-04T08:44:31.705Z,66.80
2023-04-04T08:47:05.317Z,66.70
2023-04-04T08:49:38.577Z,68.00
2023-04-04T08:52:07.770Z,65.80
2023-04-04T08:54:36.340Z,66.20
2023-04-04T08:57:04.361Z,65.70
2023-04-04T08:59:32.768Z,63.00
2023-04-04T09:02:17.824Z,62.60
2023-04-04T09:04:58.172Z,63.60
2023-04-04T09:07:34.678Z,62.80
2023-04-04T09:10:05.033Z,63.30
2023-04-04T09:12:34.165Z,62.90
2023-04-04T09:15:03.937Z,63.00
2023-04-04T09:17:33.340Z,61.30
2023-04-04T09:20:04.274Z,61.00
2023-04-04T09:22:32.713Z,60.80
2023-04-04T09:25:00.763Z,59.60
2023-04-04T09:27:28.712Z,60.10
2023-04-04T09:30:05.617Z,60.90
2023-04-04T09:32:35.526Z,61.40
2023-04-04T09:35:03.758Z,61.10
2023-04-04T09:37:31.849Z,58.50
2023-04-04T09:39:59.862Z,59.80
2023-04-04T09:42:28.618Z,60.20
2023-04-04T09:44:56.673Z,59.00
2023-04-04T09:50:01.383Z,57.10
2023-04-04T09:52:33.824Z,57.20
2023-04-04T09:55:03.616Z,56.00
2023-04-04T09:57:33.161Z,55.80
2023-04-04T10:00:01.804Z,55.10
2023-04-04T10:02:32.465Z,55.60
2023-04-04T10:05:06.544Z,58.30
2023-04-04T10:07:38.642Z,59.90
2023-04-04T10:10:08.109Z,59.50
2023-04-04T10:12:37.462Z,59.00
2023-04-04T10:15:06.370Z,55.60
2023-04-04T10:17:39.169Z,55.50
2023-04-04T10:20:10.193Z,54.60
2023-04-04T10:22:39.846Z,55.80
2023-04-04T10:25:09.530Z,55.00
2023-04-04T10:27:38.729Z,54.10
2023-04-04T10:30:08.026Z,55.70
2023-04-04T10:32:44.667Z,54.40
2023-04-04T10:35:14.589Z,54.30
2023-04-04T10:37:46.043Z,53.40
2023-04-04T10:40:17.336Z,53.30
2023-04-04T10:42:47.572Z,53.20
2023-04-04T10:45:21.686Z,56.20
2023-04-04T10:47:50.417Z,54.00
2023-04-04T10:50:21.858Z,57.80
2023-04-04T10:52:51.370Z,54.20
2023-04-04T10:55:20.486Z,52.40
2023-04-04T10:57:52.712Z,54.40
2023-04-04T11:00:23.548Z,51.20
2023-04-04T11:02:55.775Z,52.00
2023-04-04T11:05:26.668Z,53.50
2023-04-04T11:10:31.880Z,52.80
2023-04-04T11:13:12.818Z,53.30
2023-04-04T11:15:53.121Z,52.70
2023-04-04T11:20:56.285Z,54.10
2023-04-04T11:23:27.411Z,52.40
2023-04-04T11:25:56.682Z,52.30
2023-04-04T11:28:44.630Z,52.70
2023-04-04T11:31:27.678Z,51.60
2023-04-04T11:33:58.053Z,52.20
2023-04-04T11:36:51.805Z,53.10
2023-04-04T11:39:26.787Z,55.40
2023-04-04T11:41:57.405Z,54.80
2023-04-04T11:44:30.371Z,53.40
2023-04-04T11:47:04.846Z,53.50
2023-04-04T11:49:36.234Z,54.10
2023-04-04T11:52:10.009Z,55.00
2023-04-04T11:54:38.704Z,55.30
2023-04-04T11:57:07.455Z,52.50
2023-04-04T11:59:40.595Z,50.50
2023-04-04T12:02:09.576Z,50.50
2023-04-04T12:04:40.462Z,49.90
2023-04-04T12:07:11.356Z,50.40
2023-04-04T12:09:39.893Z,50.70
2023-04-04T12:12:08.785Z,51.10
2023-04-04T12:14:36.913Z,51.40
2023-04-04T12:17:04.854Z,50.60
2023-04-04T12:19:37.467Z,51.00
2023-04-04T12:22:05.954Z,50.30
2023-04-04T12:24:35.302Z,50.10
2023-04-04T12:27:04.265Z,50.20
2023-04-04T12:29:36.221Z,52.30
2023-04-04T12:32:05.563Z,52.80
2023-04-04T12:34:35.196Z,54.00
2023-04-04T12:37:04.107Z,53.40
2023-04-04T12:39:32.224Z,53.00
2023-04-04T12:42:04.024Z,52.50
2023-04-04T12:44:33.481Z,52.50
2023-04-04T12:47:03.080Z,54.00
2023-04-04T12:49:32.345Z,52.50
2023-04-04T12:52:07.212Z,51.60
2023-04-04T12:54:39.884Z,53.00
2023-04-04T12:57:12.387Z,51.70
2023-04-04T12:59:40.652Z,52.20
2023-04-04T13:02:10.083Z,51.70
2023-04-04T13:04:39.677Z,49.70
2023-04-04T13:07:22.043Z,50.20
2023-04-04T13:09:55.362Z,52.20
2023-04-04T13:12:25.937Z,51.60
2023-04-04T13:15:01.243Z,50.20
2023-04-04T13:17:43.448Z,50.30
2023-04-04T13:20:11.922Z,50.40
2023-04-04T13:22:40.876Z,50.20
2023-04-04T13:25:10.809Z,51.20
2023-04-04T13:27:40.475Z,50.70
2023-04-04T13:30:10.327Z,51.50
2023-04-04T13:32:38.997Z,51.10
2023-04-04T13:35:08.397Z,52.20
2023-04-04T13:37:36.352Z,47.70
2023-04-04T13:40:04.591Z,48.90
2023-04-04T13:42:32.548Z,48.00
2023-04-04T13:45:01.779Z,47.40
2023-04-04T13:47:29.713Z,46.40
2023-04-04T13:49:57.673Z,43.40
2023-04-04T13:52:25.927Z,43.10
2023-04-04T13:54:53.901Z,41.70
2023-04-04T13:57:21.990Z,44.60
2023-04-04T13:59:50.121Z,45.40
2023-04-04T14:02:19.464Z,46.10
2023-04-04T14:04:47.655Z,47.90
2023-04-04T14:07:16.787Z,46.40
2023-04-04T14:09:45.557Z,46.10
2023-04-04T14:14:42.441Z,45.30
2023-04-04T14:17:10.721Z,45.80
2023-04-04T14:19:41.048Z,44.00
2023-04-04T14:22:09.215Z,45.10
2023-04-04T14:24:37.354Z,42.30
2023-04-04T14:27:05.410Z,41.50
2023-04-04T14:29:34.188Z,41.30
2023-04-04T14:32:02.198Z,40.80
2023-04-04T14:34:30.378Z,41.50
2023-04-04T14:37:00.346Z,41.40
2023-04-04T14:39:28.321Z,41.50
2023-04-04T14:41:56.295Z,41.50
2023-04-04T14:44:25.076Z,41.60
2023-04-04T14:46:53.628Z,39.40
2023-04-04T14:49:21.921Z,38.60
2023-04-04T14:51:49.879Z,39.10
2023-04-04T14:54:19.146Z,39.70
2023-04-04T14:56:47.104Z,38.80
2023-04-04T14:59:15.081Z,39.70
2023-04-04T15:01:43.214Z,40.60
2023-04-04T15:04:11.824Z,39.60
2023-04-04T15:06:39.934Z,40.40
2023-04-04T15:09:08.721Z,39.50
2023-04-04T15:11:38.123Z,41.20
2023-04-04T15:14:06.144Z,40.30
2023-04-04T15:16:35.128Z,41.70
2023-04-04T15:19:03.341Z,43.00
2023-04-04T15:21:31.811Z,42.50
2023-04-04T15:23:59.880Z,42.60
2023-04-04T15:26:27.829Z,42.70
2023-04-04T15:28:57.439Z,45.60
2023-04-04T15:31:27.461Z,43.40
2023-04-04T15:33:59.054Z,43.80
2023-04-04T15:36:28.503Z,44.50
2023-04-04T15:38:56.795Z,44.70
2023-04-04T15:41:24.777Z,45.20
2023-04-04T15:43:53.020Z,44.70
2023-04-04T15:46:22.285Z,44.50
2023-04-04T15:48:51.980Z,45.90
2023-04-04T15:51:21.100Z,45.40
2023-04-04T15:53:49.264Z,44.70
2023-04-04T15:56:17.444Z,44.90
2023-04-04T15:58:45.433Z,43.60
2023-04-04T16:01:13.461Z,44.10
2023-04-04T16:03:44.942Z,45.30
2023-04-04T16:06:13.832Z,45.20
2023-04-04T16:08:43.350Z,44.70
2023-04-04T16:11:11.494Z,45.70
2023-04-04T16:13:39.431Z,43.40
2023-04-04T16:16:07.838Z,44.70
2023-04-04T16:18:37.101Z,43.90
2023-04-04T16:21:06.754Z,45.40
2023-04-04T16:23:34.679Z,44.00
2023-04-04T16:26:02.648Z,44.60
2023-04-04T16:28:30.920Z,45.80
2023-04-04T16:30:59.525Z,46.80
2023-04-04T16:33:27.575Z,46.60
2023-04-04T16:35:56.527Z,46.40
2023-04-04T16:38:25.802Z,46.20
2023-04-04T16:40:53.760Z,47.00
2023-04-04T16:43:21.711Z,47.40
2023-04-04T16:45:49.777Z,47.30
2023-04-04T16:48:17.890Z,47.90
2023-04-04T16:50:46.355Z,48.20
2023-04-04T16:53:14.294Z,46.90
2023-04-04T16:55:43.602Z,47.00
2023-04-04T16:58:12.563Z,46.30
2023-04-04T17:00:41.481Z,47.10
2023-04-04T17:03:09.724Z,48.40
2023-04-04T17:05:37.837Z,48.60
2023-04-04T17:08:06.150Z,48.40
2023-04-04T17:10:34.565Z,48.50
2023-04-04T17:13:04.261Z,48.70
2023-04-04T17:15:32.224Z,49.30
2023-04-04T17:18:00.478Z,50.00
2023-04-04T17:20:30.580Z,50.80
2023-04-04T17:22:59.496Z,50.30
2023-04-04T17:25:29.197Z,50.20
2023-04-04T17:27:57.454Z,49.10
2023-04-04T17:30:27.803Z,48.50
2023-04-04T17:32:56.068Z,49.10
2023-04-04T17:35:24.078Z,48.00
2023-04-04T17:37:52.234Z,47.90
2023-04-04T17:40:20.545Z,47.60
2023-04-04T17:42:48.495Z,47.80
2023-04-04T17:45:17.272Z,48.20
2023-04-04T17:47:46.917Z,48.10
2023-04-04T17:50:14.920Z,48.00
2023-04-04T17:52:42.885Z,48.40
2023-04-04T17:55:11.922Z,48.70
2023-04-04T17:57:41.036Z,48.70
2023-04-04T18:00:10.993Z,49.30
2023-04-04T18:02:39.036Z,49.20
2023-04-04T18:05:10.224Z,49.80
2023-04-04T18:07:38.306Z,50.50
2023-04-04T18:10:08.240Z,50.50
2023-04-04T18:12:36.391Z,51.10
2023-04-04T18:15:05.523Z,50.50
2023-04-04T18:17:33.608Z,50.20
2023-04-04T18:20:03.842Z,50.30
2023-04-04T18:22:34.234Z,50.00
2023-04-04T18:25:02.223Z,49.50
2023-04-04T18:27:31.084Z,49.70
2023-04-04T18:29:59.120Z,49.80
2023-04-04T18:32:28.593Z,49.90
2023-04-04T18:34:56.570Z,50.40
2023-04-04T18:37:24.548Z,50.70
2023-04-04T18:39:53.900Z,50.80
2023-04-04T18:42:22.109Z,51.00
2023-04-04T18:44:50.072Z,51.90
2023-04-04T18:47:18.066Z,50.80
2023-04-04T18:49:46.101Z,51.50
2023-04-04T18:52:14.134Z,51.30
2023-04-04T18:54:42.236Z,51.10
2023-04-04T18:57:11.689Z,51.50
2023-04-04T18:59:39.790Z,51.90
2023-04-04T19:02:07.763Z,53.00
2023-04-04T19:04:37.106Z,53.30
2023-04-04T19:07:06.681Z,53.60
2023-04-04T19:09:35.165Z,54.10
2023-04-04T19:12:03.822Z,53.60
2023-04-04T19:14:33.198Z,54.10
2023-04-04T19:17:01.354Z,53.40
2023-04-04T19:19:29.363Z,53.30
2023-04-04T19:21:57.292Z,53.50
2023-04-04T19:24:25.426Z,52.70
2023-04-04T19:26:54.671Z,53.00
2023-04-04T19:29:23.109Z,53.50
2023-04-04T19:31:54.435Z,53.90
2023-04-04T19:34:22.460Z,53.30
2023-04-04T19:36:50.382Z,53.80
2023-04-04T19:39:20.776Z,54.80
2023-04-04T19:41:48.856Z,55.20
2023-04-04T19:44:21.760Z,55.30
2023-04-04T19:46:49.792Z,55.10
2023-04-04T19:49:19.290Z,55.90
2023-04-04T19:51:53.085Z,56.30
2023-04-04T19:54:26.634Z,56.90
2023-04-04T19:57:01.066Z,57.10
2023-04-04T19:59:56.732Z,56.10
2023-04-04T20:02:48.876Z,56.80
2023-04-04T20:05:55.971Z,56.90
2023-04-04T20:08:26.762Z,57.10
2023-04-04T20:10:57.740Z,57.30
2023-04-04T20:13:26.270Z,57.70
2023-04-04T20:16:01.690Z,57.50
2023-04-04T20:18:31.686Z,57.90
2023-04-04T20:21:02.943Z,57.50
2023-04-04T20:23:32.793Z,57.80
2023-04-04T20:26:07.237Z,57.90
2023-04-04T20:28:36.502Z,59.10
2023-04-04T20:31:12.069Z,58.70
2023-04-04T20:33:41.577Z,60.00
2023-04-04T20:36:28.192Z,58.50
2023-04-04T20:38:58.904Z,58.50
2023-04-04T20:41:26.887Z,60.60
2023-04-04T20:43:56.470Z,60.60
2023-04-04T20:46:25.668Z,61.50
2023-04-04T20:48:56.698Z,61.70
2023-04-04T20:51:27.116Z,61.50
2023-04-04T20:53:56.738Z,61.60
2023-04-04T20:56:46.813Z,61.90
2023-04-04T20:59:32.976Z,61.30
2023-04-04T21:02:12.050Z,61.40
2023-04-04T21:04:42.039Z,61.50
2023-04-04T21:07:10.063Z,63.00
2023-04-04T21:09:38.063Z,64.30
2023-04-04T21:12:07.888Z,64.00
2023-04-04T21:14:37.462Z,63.60
2023-04-04T21:17:07.083Z,63.50
2023-04-04T21:19:35.065Z,62.80
2023-04-04T21:22:04.830Z,63.10
2023-04-04T21:24:36.285Z,63.60
2023-04-04T21:27:09.519Z,62.90
2023-04-04T21:29:37.469Z,63.80
2023-04-04T21:32:08.013Z,65.80
2023-04-04T21:34:36.342Z,67.60
2023-04-04T21:37:07.248Z,68.70
2023-04-04T21:39:37.654Z,69.60
2023-04-04T21:42:08.551Z,69.90
2023-04-04T21:44:38.523Z,70.20
2023-04-04T21:47:06.522Z,69.80
2023-04-04T21:49:34.576Z,71.30
2023-04-04T21:52:02.596Z,71.50
2023-04-04T21:54:30.570Z,72.10
2023-04-04T21:56:58.579Z,72.30
2023-04-04T21:59:26.526Z,72.20
2023-04-04T22:01:55.991Z,73.10
2023-04-04T22:04:25.661Z,73.30
2023-04-04T22:06:53.674Z,71.50
2023-04-04T22:09:25.840Z,72.40
2023-04-04T22:11:58.812Z,73.40
2023-04-04T22:14:27.329Z,72.40
2023-04-04T22:16:58.746Z,72.60
2023-04-04T22:19:26.777Z,73.50
2023-04-04T22:21:55.260Z,73.80
2023-04-04T22:24:23.159Z,74.00
2023-04-04T22:26:51.064Z,73.90
2023-04-04T22:29:19.071Z,73.70
2023-04-04T22:31:47.167Z,73.90
2023-04-04T22:34:16.614Z,73.60
2023-04-04T22:36:44.990Z,73.00
2023-04-04T22:39:16.207Z,72.80
2023-04-04T22:41:44.624Z,72.60
2023-04-04T22:44:12.557Z,72.50
2023-04-04T22:46:41.009Z,72.60
2023-04-04T22:49:08.971Z,72.80
2023-04-04T22:51:44.008Z,72.80
2023-04-04T22:54:14.345Z,72.50
2023-04-04T22:56:42.622Z,72.30
2023-04-04T22:59:10.756Z,72.10
2023-04-04T23:01:38.918Z,72.00
2023-04-04T23:04:07.050Z,72.20
2023-04-04T23:06:35.786Z,72.20
2023-04-04T23:09:05.849Z,72.10
2023-04-04T23:11:33.822Z,72.00
2023-04-04T23:14:01.874Z,72.10
2023-04-04T23:16:29.814Z,72.30
2023-04-04T23:18:57.837Z,72.40
2023-04-04T23:21:26.016Z,72.50
2023-04-04T23:23:54.022Z,72.80
2023-04-04T23:26:23.463Z,72.70
2023-04-04T23:28:51.582Z,73.10
2023-04-04T23:31:20.409Z,73.60
2023-04-04T23:33:48.384Z,74.10
2023-04-04T23:36:16.638Z,75.20
2023-04-04T23:38:44.719Z,75.60
2023-04-04T23:41:13.013Z,75.60
2023-04-04T23:43:43.242Z,75.40
2023-04-04T23:46:14.467Z,75.30
2023-04-04T23:48:42.624Z,75.10
2023-04-04T23:51:10.940Z,75.00
2023-04-04T23:53:39.012Z,74.80
2023-04-04T23:56:07.765Z,74.40
2023-04-04T23:58:35.711Z,74.40
